MMTM/TAM METAR and TAF weather

Enter ICAO airport designator
Station Type Date Time Source
MMTM METAR 2021/07/28 02:42 UTC NOAA

MMTM 280242Z 06005KT 10SM BKN200 28/25 A2994 RMK 8/002


Station Type Date Time Source
MMTM Decoded METAR 2021/07/28 02:42 UTC NOAA

Tampico / Gen Fj Mina, Mexico (MMTM) 22-17N 097-52W
Jul 27, 2021 - 10:42 PM EDT / 2021.07.28 0242 UTC
Wind: from the ENE (060 degrees) at 6 MPH (5 KT):0
Visibility: 10 mile(s):0
Sky conditions: mostly cloudy
Temperature: 82 F (28 C)
Dew Point: 77 F (25 C)
Relative Humidity: 83%
Pressure (altimeter): 29.94 in. Hg (1013 hPa)
ob: MMTM 280242Z 06005KT 10SM BKN200 28/25 A2994 RMK 8/002
cycle: 2

Station Type Date Time Source
MMTM TAF 2021/07/28 06:20 UTC NOAA

TAF MMTM 280313Z 2806/2906 06005KT P6SM BKN200
TEMPO 2812/2815 BKN015
FM281800 12010KT 6SM HZ SCT020 BKN200
FM290300 13005KT 6SM HZ BKN200

Example: see airport list